Time;durP1;ratioP1;P1;durP2;ratioP2;P2;SDS_P1;SDS_P2;PMS_P1;PMS_P2;Temp;Humidity;BMP_temperature;BMP_pressure;BME280_temperature;BME280_humidity;BME280_pressure;Samples;Min_cycle;Max_cycle;Signal;HPM_P1;HPM_P2
2024/01/28 00:02:14;;;;;;;17.00;7.13;;;1.90;99.90;;;;;;5115377;27;20045;-66
2024/01/28 00:04:40;;;;;;;25.77;7.88;;;2.00;99.90;;;;;;5113724;27;20082;-66
2024/01/28 00:07:06;;;;;;;18.35;7.05;;;1.90;99.90;;;;;;5078453;28;20032;-66
2024/01/28 00:09:31;;;;;;;15.70;6.22;;;1.90;99.90;;;;;;5081771;28;20036;-66
2024/01/28 00:11:57;;;;;;;13.30;6.63;;;1.90;99.90;;;;;;5085271;28;20087;-66
2024/01/28 00:14:22;;;;;;;23.38;6.00;;;1.90;99.90;;;;;;5113900;27;20043;-66
2024/01/28 00:16:49;;;;;;;17.75;7.28;;;1.90;99.90;;;;;;5081868;28;20036;-66
2024/01/28 00:19:14;;;;;;;15.00;6.53;;;1.90;99.90;;;;;;5082587;28;20123;-66
2024/01/28 00:21:40;;;;;;;19.55;6.43;;;1.90;99.90;;;;;;5083204;28;20135;-66
2024/01/28 00:24:06;;;;;;;14.23;6.32;;;1.80;99.90;;;;;;5079796;28;20048;-66
2024/01/28 00:26:39;;;;;;;10.70;5.35;;;1.80;99.90;;;;;;5082897;28;20486;-66
2024/01/28 00:29:05;;;;;;;17.35;5.95;;;1.70;99.90;;;;;;5097849;28;20045;-66
2024/01/28 00:31:31;;;;;;;18.75;6.45;;;1.70;99.90;;;;;;5083695;28;20046;-66
2024/01/28 00:33:57;;;;;;;18.38;7.00;;;1.70;99.90;;;;;;5084057;28;20036;-66
2024/01/28 00:36:23;;;;;;;16.73;6.72;;;1.70;99.90;;;;;;5081737;28;20043;-66
2024/01/28 00:38:50;;;;;;;15.95;6.45;;;1.60;99.90;;;;;;5083047;28;20119;-66
2024/01/28 00:41:29;;;;;;;15.63;6.15;;;1.70;99.90;;;;;;5079848;28;20052;-66
2024/01/28 00:43:55;;;;;;;13.60;5.10;;;1.60;99.90;;;;;;5079961;28;20048;-66
2024/01/28 00:46:24;;;;;;;15.88;6.18;;;1.60;99.90;;;;;;5083279;28;20051;-66
2024/01/28 00:48:50;;;;;;;14.10;5.70;;;1.60;99.90;;;;;;5082340;28;20040;-66
2024/01/28 00:51:16;;;;;;;11.05;5.70;;;1.50;99.90;;;;;;5079005;28;20482;-66
2024/01/28 00:53:42;;;;;;;15.32;6.18;;;1.50;99.90;;;;;;5081334;28;20394;-66
2024/01/28 00:56:07;;;;;;;14.25;6.28;;;1.50;99.90;;;;;;5081477;28;20042;-66
2024/01/28 00:58:34;;;;;;;11.43;5.40;;;1.40;99.90;;;;;;5081525;28;20079;-66
2024/01/28 01:00:59;;;;;;;15.30;5.50;;;1.40;99.90;;;;;;5082462;28;20048;-66
2024/01/28 01:03:25;;;;;;;15.00;5.90;;;1.40;99.90;;;;;;5076777;28;20040;-66
2024/01/28 01:05:51;;;;;;;18.17;6.82;;;1.40;99.90;;;;;;5085372;28;20048;-66
2024/01/28 01:08:17;;;;;;;16.95;6.90;;;1.30;99.90;;;;;;5085641;28;20447;-66
2024/01/28 01:10:43;;;;;;;17.17;7.32;;;1.40;99.90;;;;;;5079105;28;20044;-66
2024/01/28 01:13:09;;;;;;;16.15;7.30;;;1.40;99.90;;;;;;5084776;28;20051;-66
2024/01/28 01:15:34;;;;;;;21.67;7.45;;;1.40;99.90;;;;;;5080857;28;20044;-66
2024/01/28 01:18:00;;;;;;;16.95;6.60;;;1.40;99.90;;;;;;5084469;28;20032;-66
2024/01/28 01:20:25;;;;;;;15.60;5.80;;;1.50;99.90;;;;;;5084920;28;20124;-66
2024/01/28 01:22:53;;;;;;;21.30;7.43;;;1.50;99.90;;;;;;5078014;28;20040;-66
2024/01/28 01:25:19;;;;;;;12.77;6.38;;;1.40;99.90;;;;;;5081034;28;20051;-66
2024/01/28 01:27:45;;;;;;;12.38;5.90;;;1.30;99.90;;;;;;5083331;28;20045;-66
2024/01/28 01:30:11;;;;;;;16.75;7.65;;;1.30;99.90;;;;;;5081281;28;20048;-66
2024/01/28 01:32:40;;;;;;;13.07;6.78;;;1.40;99.90;;;;;;5077164;28;20724;-66
2024/01/28 01:35:09;;;;;;;18.67;8.00;;;1.40;99.90;;;;;;5082734;28;20032;-66
2024/01/28 01:37:35;;;;;;;16.75;7.38;;;1.40;99.90;;;;;;5081540;28;20028;-66
2024/01/28 01:40:01;;;;;;;15.73;7.60;;;1.40;99.90;;;;;;5060364;28;20044;-66
2024/01/28 01:42:27;;;;;;;17.88;6.70;;;1.40;99.90;;;;;;5083442;28;20390;-66
2024/01/28 01:44:53;;;;;;;19.88;6.93;;;1.40;99.90;;;;;;5077093;28;20051;-66
2024/01/28 01:47:19;;;;;;;12.27;6.82;;;1.30;99.90;;;;;;5081093;28;20040;-66
2024/01/28 01:49:45;;;;;;;17.10;6.95;;;1.40;99.90;;;;;;5082070;28;20032;-66
2024/01/28 01:52:13;;;;;;;15.48;6.82;;;1.40;99.90;;;;;;5080045;28;20098;-66
2024/01/28 01:54:39;;;;;;;12.45;6.70;;;1.40;99.90;;;;;;5078664;28;20052;-66
2024/01/28 01:57:04;;;;;;;17.45;7.10;;;1.40;99.90;;;;;;5081145;28;20500;-66
2024/01/28 01:59:30;;;;;;;16.05;7.78;;;1.30;99.90;;;;;;5109926;27;20047;-66
2024/01/28 02:01:59;;;;;;;18.25;7.85;;;1.40;99.90;;;;;;5076515;28;20052;-66
2024/01/28 02:04:25;;;;;;;15.50;7.40;;;1.40;99.90;;;;;;5079893;28;20089;-66
2024/01/28 02:06:50;;;;;;;17.10;7.00;;;1.50;99.90;;;;;;5112351;27;20046;-66
2024/01/28 02:09:16;;;;;;;18.17;7.90;;;1.50;99.90;;;;;;5076790;28;20394;-66
2024/01/28 02:11:43;;;;;;;19.50;7.82;;;1.50;99.90;;;;;;5082930;28;20123;-66
2024/01/28 02:14:08;;;;;;;19.38;8.38;;;1.50;99.90;;;;;;5082506;28;20047;-66
2024/01/28 02:16:34;;;;;;;17.38;8.27;;;1.60;99.90;;;;;;5084622;28;20032;-66
2024/01/28 02:18:59;;;;;;;19.90;8.45;;;1.70;99.90;;;;;;5109784;27;20035;-66
2024/01/28 02:21:26;;;;;;;17.25;7.95;;;1.70;99.90;;;;;;5080667;28;20155;-66
2024/01/28 02:23:51;;;;;;;24.50;8.70;;;1.70;99.90;;;;;;5077269;28;20051;-66
2024/01/28 02:26:17;;;;;;;16.92;8.68;;;1.70;99.90;;;;;;5077699;28;20036;-66
2024/01/28 02:28:42;;;;;;;17.77;8.20;;;1.70;99.90;;;;;;5085105;28;20503;-66
2024/01/28 02:31:08;;;;;;;18.95;7.68;;;1.70;99.90;;;;;;5116138;27;20129;-66
2024/01/28 02:33:34;;;;;;;15.63;7.00;;;1.80;99.90;;;;;;5083282;28;20041;-66
2024/01/28 02:35:59;;;;;;;17.50;7.80;;;1.80;99.90;;;;;;5085230;28;20098;-66
2024/01/28 02:38:25;;;;;;;20.83;8.57;;;1.80;99.90;;;;;;5115233;27;20441;-66
2024/01/28 02:40:52;;;;;;;20.55;8.00;;;1.80;99.90;;;;;;5115760;27;20048;-66
2024/01/28 02:43:19;;;;;;;21.83;7.03;;;1.70;99.90;;;;;;5088168;28;20058;-66
2024/01/28 02:45:44;;;;;;;19.05;7.35;;;1.80;99.90;;;;;;5082784;28;20049;-66
2024/01/28 02:48:10;;;;;;;18.88;7.05;;;1.80;99.90;;;;;;5082017;28;20055;-66
2024/01/28 02:50:35;;;;;;;14.48;6.85;;;1.80;99.90;;;;;;5085273;28;20051;-66
2024/01/28 02:53:01;;;;;;;20.33;6.95;;;1.80;99.90;;;;;;5084064;28;20036;-66
2024/01/28 02:55:27;;;;;;;18.48;6.90;;;1.90;99.90;;;;;;5082158;28;20047;-66
2024/01/28 02:57:52;;;;;;;12.20;6.63;;;1.90;99.90;;;;;;5082870;28;20402;-66
2024/01/28 03:00:18;;;;;;;20.27;7.75;;;1.90;99.90;;;;;;5082799;28;20032;-66
2024/01/28 03:02:44;;;;;;;13.27;6.75;;;2.00;99.90;;;;;;5082193;28;20047;-66
2024/01/28 03:05:11;;;;;;;13.10;6.43;;;2.00;99.90;;;;;;5083313;28;20123;-66
2024/01/28 03:07:36;;;;;;;16.85;6.90;;;2.00;99.90;;;;;;5089009;28;20150;-66
2024/01/28 03:10:02;;;;;;;20.27;7.53;;;2.00;99.90;;;;;;5086657;28;20057;-66
2024/01/28 03:12:28;;;;;;;20.27;7.13;;;2.00;99.90;;;;;;5115196;27;20039;-66
2024/01/28 03:14:53;;;;;;;14.80;6.90;;;2.00;99.90;;;;;;5081549;28;20037;-66
2024/01/28 03:17:19;;;;;;;16.70;7.22;;;2.00;99.90;;;;;;5066426;28;20122;-66
2024/01/28 03:19:44;;;;;;;18.20;6.40;;;2.00;99.90;;;;;;5081939;28;20908;-66
2024/01/28 03:22:10;;;;;;;21.13;6.72;;;2.00;99.90;;;;;;5080623;28;20041;-66
2024/01/28 03:24:36;;;;;;;18.40;6.72;;;2.00;99.90;;;;;;5084271;28;20071;-66
2024/01/28 03:27:02;;;;;;;14.23;6.68;;;2.00;99.90;;;;;;5084566;28;20128;-66
2024/01/28 03:29:27;;;;;;;13.48;6.13;;;2.10;99.90;;;;;;5085162;28;20111;-66
2024/01/28 03:31:53;;;;;;;17.38;7.20;;;2.10;99.90;;;;;;5077570;28;20056;-66
2024/01/28 03:34:19;;;;;;;19.13;6.50;;;2.10;99.90;;;;;;5065528;28;20029;-66
2024/01/28 03:36:45;;;;;;;24.67;7.20;;;2.10;99.90;;;;;;5081343;28;20375;-66
2024/01/28 03:39:14;;;;;;;16.00;7.22;;;2.10;99.90;;;;;;5062599;28;20040;-66
2024/01/28 03:41:39;;;;;;;17.77;6.65;;;2.20;99.90;;;;;;5083768;28;20083;-66
2024/01/28 03:44:05;;;;;;;15.43;6.03;;;2.20;99.90;;;;;;5084673;28;20064;-66
2024/01/28 03:46:31;;;;;;;16.95;5.90;;;2.20;99.90;;;;;;5114411;27;20076;-66
2024/01/28 03:48:57;;;;;;;21.30;5.85;;;2.20;99.90;;;;;;5084196;28;20051;-66
2024/01/28 03:51:22;;;;;;;14.82;6.32;;;2.20;99.90;;;;;;5083465;28;20120;-66
2024/01/28 03:53:48;;;;;;;20.08;6.45;;;2.20;99.90;;;;;;5114792;27;20470;-66
2024/01/28 03:56:13;;;;;;;22.90;6.07;;;2.20;99.90;;;;;;5087864;28;20127;-66
2024/01/28 03:58:39;;;;;;;13.25;5.90;;;2.20;99.90;;;;;;5085511;28;20050;-66
2024/01/28 04:01:05;;;;;;;16.63;5.78;;;2.20;99.90;;;;;;5083928;28;20044;-66
2024/01/28 04:03:30;;;;;;;14.27;5.65;;;2.20;99.90;;;;;;5077943;28;20041;-66
2024/01/28 04:05:56;;;;;;;15.43;6.28;;;2.20;99.90;;;;;;5112605;27;20668;-66
2024/01/28 04:08:21;;;;;;;16.65;5.88;;;2.20;99.90;;;;;;5114673;27;20074;-66
2024/01/28 04:10:47;;;;;;;15.05;6.22;;;2.20;99.90;;;;;;5085586;28;20558;-66
2024/01/28 04:13:12;;;;;;;18.30;7.00;;;2.10;99.90;;;;;;5080907;28;20032;-66
2024/01/28 04:15:38;;;;;;;18.30;6.25;;;2.10;99.90;;;;;;5114217;27;20591;-66
2024/01/28 04:18:05;;;;;;;14.43;6.10;;;2.10;99.90;;;;;;5082474;28;20029;-66
2024/01/28 04:20:30;;;;;;;15.43;5.88;;;2.10;99.90;;;;;;5084204;28;20393;-66
2024/01/28 04:22:56;;;;;;;12.48;6.07;;;2.10;99.90;;;;;;5117553;27;20040;-66
2024/01/28 04:25:21;;;;;;;16.35;6.40;;;2.00;99.90;;;;;;5079200;28;20560;-66
2024/01/28 04:27:47;;;;;;;15.75;6.20;;;2.00;99.90;;;;;;5083352;28;20036;-66
2024/01/28 04:30:13;;;;;;;13.07;5.55;;;2.00;99.90;;;;;;5079498;28;20087;-66
2024/01/28 04:32:38;;;;;;;14.30;5.43;;;1.90;99.90;;;;;;5079589;28;20039;-66
2024/01/28 04:35:04;;;;;;;17.10;6.47;;;1.90;99.90;;;;;;5081055;28;20032;-66
2024/01/28 04:37:30;;;;;;;13.68;5.80;;;1.90;99.90;;;;;;5080635;28;20080;-66
2024/01/28 04:39:56;;;;;;;11.30;5.05;;;1.80;99.90;;;;;;5078624;28;20087;-66
2024/01/28 04:42:22;;;;;;;15.80;5.90;;;1.80;99.90;;;;;;5080961;28;20040;-66
2024/01/28 04:44:51;;;;;;;18.08;6.05;;;1.80;99.90;;;;;;5083411;28;20036;-66
2024/01/28 04:47:17;;;;;;;12.82;6.63;;;1.70;99.90;;;;;;5078182;28;20094;-66
2024/01/28 04:49:43;;;;;;;14.43;6.07;;;1.70;99.90;;;;;;5112740;27;20043;-66
2024/01/28 04:52:08;;;;;;;12.48;5.70;;;1.70;99.90;;;;;;5083922;28;20139;-66
2024/01/28 04:54:34;;;;;;;10.15;5.97;;;1.70;99.90;;;;;;5082707;28;20036;-66
2024/01/28 04:57:01;;;;;;;14.13;6.55;;;1.70;99.90;;;;;;5115769;27;20498;-66
2024/01/28 04:59:27;;;;;;;16.50;5.63;;;1.70;99.90;;;;;;5082738;28;20086;-66
2024/01/28 05:01:54;;;;;;;14.15;6.25;;;1.60;99.90;;;;;;5082104;28;20042;-66
2024/01/28 05:04:19;;;;;;;16.83;6.15;;;1.60;99.90;;;;;;5083158;28;20032;-66
2024/01/28 05:06:45;;;;;;;16.65;6.82;;;1.60;99.90;;;;;;5111886;27;20410;-66
2024/01/28 05:09:10;;;;;;;14.52;6.63;;;1.60;99.90;;;;;;5111400;27;20064;-66
2024/01/28 05:11:36;;;;;;;17.35;6.80;;;1.60;99.90;;;;;;5113492;27;20056;-66
2024/01/28 05:14:02;;;;;;;11.93;5.85;;;1.60;99.90;;;;;;5082917;28;20035;-66
2024/01/28 05:16:28;;;;;;;15.95;6.50;;;1.50;99.90;;;;;;5080201;28;20036;-66
2024/01/28 05:18:54;;;;;;;14.27;5.70;;;1.50;99.90;;;;;;5081620;28;20109;-66
2024/01/28 05:21:19;;;;;;;14.23;5.82;;;1.50;99.90;;;;;;5079736;28;20047;-66
2024/01/28 05:23:48;;;;;;;13.38;4.90;;;1.50;99.90;;;;;;5082706;28;20032;-66
2024/01/28 05:26:14;;;;;;;14.93;5.72;;;1.50;99.90;;;;;;5083397;28;20040;-66
2024/01/28 05:28:40;;;;;;;17.83;6.03;;;1.50;99.90;;;;;;5079905;28;20050;-66
2024/01/28 05:31:07;;;;;;;15.70;5.57;;;1.40;99.90;;;;;;5081142;28;20079;-66
2024/01/28 05:33:37;;;;;;;16.73;6.03;;;1.50;99.90;;;;;;5082362;28;20067;-66
2024/01/28 05:36:12;;;;;;;16.35;6.13;;;1.50;99.90;;;;;;5082782;28;20039;-66
2024/01/28 05:38:38;;;;;;;11.93;4.60;;;1.60;99.90;;;;;;5076412;28;20115;-66
2024/01/28 05:41:05;;;;;;;18.80;5.60;;;1.50;99.90;;;;;;5078404;28;20089;-66
2024/01/28 05:43:30;;;;;;;15.40;4.68;;;1.50;99.90;;;;;;5080879;28;20032;-66
2024/01/28 05:45:57;;;;;;;9.48;4.75;;;1.50;99.90;;;;;;5079250;28;20036;-66
2024/01/28 05:48:23;;;;;;;12.90;3.90;;;1.50;99.90;;;;;;5081486;28;20031;-66
2024/01/28 05:50:48;;;;;;;10.93;4.90;;;1.50;99.90;;;;;;5114045;27;20106;-66
2024/01/28 05:53:14;;;;;;;14.70;5.63;;;1.50;99.90;;;;;;5083112;28;20028;-66
2024/01/28 05:55:40;;;;;;;14.55;5.15;;;1.50;99.90;;;;;;5111723;27;20068;-66
2024/01/28 05:58:06;;;;;;;13.52;4.78;;;1.60;99.90;;;;;;5082056;28;20083;-66
2024/01/28 06:00:31;;;;;;;10.38;4.47;;;1.50;99.90;;;;;;5081176;28;20382;-66
2024/01/28 06:02:57;;;;;;;13.82;4.85;;;1.60;99.90;;;;;;5082226;28;20040;-66
2024/01/28 06:05:22;;;;;;;11.00;5.03;;;1.60;99.90;;;;;;5082870;28;20097;-66
2024/01/28 06:07:48;;;;;;;8.77;4.20;;;1.60;99.90;;;;;;5078772;28;20078;-66
2024/01/28 06:10:14;;;;;;;14.73;5.30;;;1.50;99.90;;;;;;5079509;28;20478;-66
2024/01/28 06:12:39;;;;;;;13.80;5.28;;;1.60;99.90;;;;;;5077556;28;20036;-66
2024/01/28 06:15:08;;;;;;;10.90;4.70;;;1.60;99.90;;;;;;5089184;28;20050;-66
2024/01/28 06:17:36;;;;;;;11.95;4.68;;;1.50;99.90;;;;;;5075913;28;20047;-66
2024/01/28 06:20:04;;;;;;;17.50;4.88;;;1.50;99.90;;;;;;5080471;28;20044;-66
2024/01/28 06:22:29;;;;;;;15.10;5.07;;;1.50;99.90;;;;;;5085757;28;20135;-66
2024/01/28 06:24:55;;;;;;;11.23;4.57;;;1.50;99.90;;;;;;5082086;28;20119;-66
2024/01/28 06:27:20;;;;;;;14.35;4.80;;;1.50;99.90;;;;;;5111780;28;20116;-66
2024/01/28 06:29:47;;;;;;;12.88;5.00;;;1.40;99.90;;;;;;5115612;27;20047;-66
2024/01/28 06:32:13;;;;;;;15.40;4.28;;;1.40;99.90;;;;;;5112960;27;20111;-66
2024/01/28 06:34:39;;;;;;;11.45;4.55;;;1.50;99.90;;;;;;5078890;28;20036;-66
2024/01/28 06:37:04;;;;;;;11.02;4.15;;;1.30;99.90;;;;;;5080784;28;20165;-66
2024/01/28 06:39:31;;;;;;;14.43;5.10;;;1.40;99.90;;;;;;5110705;27;20503;-66
2024/01/28 06:41:57;;;;;;;13.00;4.82;;;1.30;99.90;;;;;;5079066;28;20135;-66
2024/01/28 06:44:23;;;;;;;14.80;4.75;;;1.30;99.90;;;;;;5076511;28;20067;-66
2024/01/28 06:46:49;;;;;;;12.75;4.70;;;1.20;99.90;;;;;;5078393;28;20466;-66
2024/01/28 06:49:14;;;;;;;14.07;4.10;;;1.20;99.90;;;;;;5077657;28;20059;-66
2024/01/28 06:51:41;;;;;;;12.38;4.45;;;1.10;99.90;;;;;;5078217;28;20100;-66
2024/01/28 06:54:07;;;;;;;11.23;4.57;;;1.10;99.90;;;;;;5077239;28;20047;-66
2024/01/28 06:56:33;;;;;;;10.45;4.35;;;1.10;99.90;;;;;;5075173;28;20039;-66
2024/01/28 06:58:59;;;;;;;9.73;4.93;;;1.10;99.90;;;;;;5075270;28;20033;-66
2024/01/28 07:01:25;;;;;;;13.90;4.85;;;1.10;99.90;;;;;;5059289;28;20072;-66
2024/01/28 07:03:50;;;;;;;10.98;4.78;;;1.10;99.90;;;;;;5075681;28;20048;-66
2024/01/28 07:06:16;;;;;;;12.85;6.28;;;1.10;99.90;;;;;;5074455;28;20044;-66
2024/01/28 07:08:42;;;;;;;8.98;4.65;;;1.10;99.90;;;;;;5105858;27;20068;-66
2024/01/28 07:11:08;;;;;;;9.57;4.05;;;1.00;99.90;;;;;;5075289;28;20044;-66
2024/01/28 07:13:34;;;;;;;13.65;4.53;;;1.00;99.90;;;;;;5076689;28;20036;-66
2024/01/28 07:15:59;;;;;;;9.82;4.18;;;0.90;99.90;;;;;;5079456;28;20044;-66
2024/01/28 07:18:25;;;;;;;9.75;4.75;;;0.80;99.90;;;;;;5075448;28;20039;-66
2024/01/28 07:20:50;;;;;;;11.90;4.55;;;0.80;99.90;;;;;;5082444;28;20524;-66
2024/01/28 07:23:16;;;;;;;14.80;4.25;;;0.80;99.90;;;;;;5080494;28;20037;-66
2024/01/28 07:25:42;;;;;;;10.13;4.22;;;0.80;99.90;;;;;;5075482;28;20050;-66
2024/01/28 07:28:07;;;;;;;11.95;4.35;;;0.80;99.90;;;;;;5077565;28;20036;-66
2024/01/28 07:30:33;;;;;;;8.85;4.25;;;0.70;99.90;;;;;;5079968;28;20064;-66
2024/01/28 07:32:58;;;;;;;14.88;3.92;;;0.70;99.90;;;;;;5082702;28;20036;-66
2024/01/28 07:35:24;;;;;;;14.27;5.03;;;0.70;99.90;;;;;;5117118;27;20616;-66
2024/01/28 07:37:49;;;;;;;10.55;4.45;;;0.70;99.90;;;;;;5082701;28;20039;-66
2024/01/28 07:40:15;;;;;;;16.08;4.88;;;0.70;99.90;;;;;;5113184;27;20032;-66
2024/01/28 07:42:41;;;;;;;12.98;4.90;;;0.70;99.90;;;;;;5079886;28;20040;-66
2024/01/28 07:45:09;;;;;;;9.65;4.80;;;0.80;99.90;;;;;;5081269;28;20036;-66
2024/01/28 07:47:35;;;;;;;12.55;4.43;;;0.80;99.90;;;;;;5100103;27;20089;-66
2024/01/28 07:50:01;;;;;;;12.50;4.50;;;0.80;99.90;;;;;;5062917;28;20044;-66
2024/01/28 07:52:27;;;;;;;9.82;5.20;;;0.70;99.90;;;;;;5078742;28;20517;-66
2024/01/28 07:54:53;;;;;;;12.05;5.25;;;0.80;99.90;;;;;;5081879;28;20086;-66
2024/01/28 07:57:19;;;;;;;12.75;4.95;;;0.80;99.90;;;;;;5080946;28;20040;-66
2024/01/28 07:59:44;;;;;;;8.60;3.90;;;0.90;99.90;;;;;;5079870;28;20394;-66
2024/01/28 08:02:10;;;;;;;11.05;4.78;;;1.00;99.90;;;;;;5076151;28;20043;-66
2024/01/28 08:04:36;;;;;;;14.57;5.18;;;1.00;99.90;;;;;;5082652;28;20127;-66
2024/01/28 08:07:02;;;;;;;12.30;4.63;;;1.00;99.90;;;;;;5080212;28;20040;-66
2024/01/28 08:09:31;;;;;;;11.52;4.63;;;1.10;99.90;;;;;;5078470;28;20055;-66
2024/01/28 08:11:57;;;;;;;9.95;4.15;;;1.10;99.90;;;;;;5083680;28;20069;-66
2024/01/28 08:14:27;;;;;;;9.57;4.00;;;1.20;99.90;;;;;;5084458;28;20028;-66
2024/01/28 08:16:55;;;;;;;11.45;4.38;;;1.20;99.90;;;;;;5080121;28;20481;-66
2024/01/28 08:19:21;;;;;;;12.93;4.70;;;1.30;99.90;;;;;;5077189;28;20029;-65
2024/01/28 08:21:48;;;;;;;9.00;3.90;;;1.40;99.90;;;;;;5079536;28;20413;-65
2024/01/28 08:24:13;;;;;;;11.25;4.03;;;1.50;99.90;;;;;;5078427;28;20055;-65
2024/01/28 08:26:40;;;;;;;9.10;4.32;;;1.60;99.90;;;;;;5079788;28;20040;-66
2024/01/28 08:29:05;;;;;;;10.23;4.10;;;1.60;99.90;;;;;;5076940;28;20058;-65
2024/01/28 08:31:31;;;;;;;8.73;4.07;;;1.60;99.90;;;;;;5079085;28;20402;-65
2024/01/28 08:33:56;;;;;;;8.00;2.92;;;1.70;99.90;;;;;;5109672;27;20051;-65
2024/01/28 08:36:22;;;;;;;8.98;4.03;;;1.80;99.90;;;;;;5079107;28;20470;-65
2024/01/28 08:38:47;;;;;;;13.40;5.18;;;1.80;99.90;;;;;;5078868;28;20039;-65
2024/01/28 08:41:13;;;;;;;9.25;4.53;;;1.90;99.90;;;;;;5112972;27;20060;-65
2024/01/28 08:43:39;;;;;;;12.45;4.18;;;2.00;99.90;;;;;;5082884;28;20055;-65
2024/01/28 08:46:04;;;;;;;9.02;4.13;;;2.10;99.90;;;;;;5080301;28;20461;-65
2024/01/28 08:48:30;;;;;;;13.32;4.93;;;2.10;99.90;;;;;;5083020;28;20040;-65
2024/01/28 08:50:56;;;;;;;9.15;4.20;;;2.10;99.90;;;;;;5080299;28;20067;-65
2024/01/28 08:53:22;;;;;;;12.75;4.60;;;2.10;99.90;;;;;;5075991;28;20422;-66
2024/01/28 08:55:47;;;;;;;7.97;4.07;;;2.10;99.90;;;;;;5081419;28;20085;-65
2024/01/28 08:58:13;;;;;;;13.10;4.30;;;2.20;99.90;;;;;;5115772;27;20046;-65
2024/01/28 09:00:39;;;;;;;7.82;5.10;;;2.30;99.90;;;;;;5076753;28;20119;-65
2024/01/28 09:03:05;;;;;;;9.05;3.65;;;2.30;99.90;;;;;;5079975;28;20444;-66
2024/01/28 09:05:31;;;;;;;10.38;4.30;;;2.30;99.90;;;;;;5080820;28;20550;-65
2024/01/28 09:07:56;;;;;;;11.95;3.90;;;2.40;99.90;;;;;;5079567;28;20055;-66
2024/01/28 09:10:23;;;;;;;7.82;3.75;;;2.40;99.90;;;;;;5080201;28;20048;-66
2024/01/28 09:12:48;;;;;;;6.63;3.50;;;2.40;99.90;;;;;;5113931;27;20028;-66
2024/01/28 09:15:14;;;;;;;10.43;4.03;;;2.40;99.90;;;;;;5075488;28;20040;-65
2024/01/28 09:17:41;;;;;;;10.50;3.85;;;2.40;99.90;;;;;;5081209;28;20066;-65
2024/01/28 09:20:07;;;;;;;7.95;3.35;;;2.50;99.90;;;;;;5081430;28;20071;-65
2024/01/28 09:22:36;;;;;;;9.90;3.67;;;2.60;99.90;;;;;;5079885;28;20035;-65
2024/01/28 09:25:03;;;;;;;9.77;4.93;;;2.60;99.90;;;;;;5074728;28;20032;-65
2024/01/28 09:27:29;;;;;;;9.30;3.55;;;2.70;99.90;;;;;;5081359;28;20036;-66
2024/01/28 09:29:55;;;;;;;8.10;3.80;;;2.80;99.90;;;;;;5111036;27;20517;-66
2024/01/28 09:32:21;;;;;;;9.48;3.58;;;2.80;99.90;;;;;;5074736;28;20040;-66
2024/01/28 09:34:46;;;;;;;6.82;3.40;;;2.90;99.90;;;;;;5059892;28;20044;-66
2024/01/28 09:37:13;;;;;;;8.45;3.08;;;2.90;99.90;;;;;;5106597;27;20039;-66
2024/01/28 09:39:38;;;;;;;8.18;3.17;;;2.90;99.90;;;;;;5075484;28;20032;-66
2024/01/28 09:42:07;;;;;;;6.28;2.67;;;3.00;99.90;;;;;;5077850;28;20039;-66
2024/01/28 09:44:33;;;;;;;7.35;3.40;;;3.00;99.90;;;;;;5108976;27;20051;-66
2024/01/28 09:46:58;;;;;;;5.65;2.30;;;3.10;99.90;;;;;;5076527;28;20048;-66
2024/01/28 09:49:25;;;;;;;7.05;3.00;;;3.20;99.90;;;;;;5107628;27;20100;-66
2024/01/28 09:51:51;;;;;;;8.40;3.00;;;3.30;99.90;;;;;;5078026;28;20114;-66
2024/01/28 09:54:17;;;;;;;10.05;2.92;;;3.40;99.90;;;;;;5078952;28;20036;-66
2024/01/28 09:56:43;;;;;;;7.13;2.63;;;3.50;99.90;;;;;;5074781;28;20456;-66
2024/01/28 09:59:12;;;;;;;8.32;3.00;;;3.60;99.90;;;;;;5076688;28;20145;-66
2024/01/28 10:01:41;;;;;;;6.72;2.80;;;3.70;99.90;;;;;;5074594;28;20102;-66
2024/01/28 10:04:07;;;;;;;6.53;2.95;;;3.70;99.90;;;;;;5078849;28;20041;-66
2024/01/28 10:06:33;;;;;;;6.35;2.70;;;3.80;99.90;;;;;;5075926;28;20421;-66
2024/01/28 10:08:58;;;;;;;7.50;2.70;;;3.90;99.90;;;;;;5076897;28;20429;-66
2024/01/28 10:11:24;;;;;;;8.95;2.83;;;3.90;99.90;;;;;;5076075;28;20056;-66
2024/01/28 10:13:50;;;;;;;7.10;2.63;;;4.00;99.90;;;;;;5079399;28;20048;-66
2024/01/28 10:16:22;;;;;;;5.82;2.50;;;4.10;99.90;;;;;;5078230;28;20141;-66
2024/01/28 10:18:48;;;;;;;9.55;2.40;;;4.10;99.90;;;;;;5078572;28;20398;-66
2024/01/28 10:21:14;;;;;;;5.35;2.40;;;4.20;99.90;;;;;;5078612;28;20036;-66
2024/01/28 10:23:39;;;;;;;7.43;2.75;;;4.30;99.90;;;;;;5077539;28;20073;-66
2024/01/28 10:26:06;;;;;;;8.05;2.30;;;4.40;99.90;;;;;;5082553;28;20055;-66
2024/01/28 10:28:32;;;;;;;6.63;2.45;;;4.50;99.90;;;;;;5079914;28;20498;-66
2024/01/28 10:30:57;;;;;;;6.10;2.25;;;4.60;99.90;;;;;;5111742;27;20051;-66
2024/01/28 10:33:23;;;;;;;5.55;2.28;;;4.70;99.90;;;;;;5076349;28;20518;-66
2024/01/28 10:35:48;;;;;;;7.00;2.80;;;4.80;99.90;;;;;;5108175;27;20040;-66
2024/01/28 10:38:24;;;;;;;8.00;3.05;;;4.90;99.90;;;;;;5109050;28;20486;-66
2024/01/28 10:40:51;;;;;;;6.68;2.42;;;5.00;99.90;;;;;;5107932;28;20118;-66
2024/01/28 10:43:21;;;;;;;7.22;2.35;;;5.10;99.90;;;;;;5074898;28;20049;-66
2024/01/28 10:45:51;;;;;;;6.70;2.30;;;5.20;99.90;;;;;;5074362;28;20164;-66
2024/01/28 10:48:17;;;;;;;7.03;1.95;;;5.30;99.90;;;;;;5095627;27;20052;-66
2024/01/28 10:50:44;;;;;;;9.02;2.50;;;5.50;99.90;;;;;;5083708;28;20076;-66
2024/01/28 10:53:12;;;;;;;6.47;2.38;;;5.60;99.90;;;;;;5079527;28;20040;-66
2024/01/28 10:55:39;;;;;;;7.20;2.00;;;5.70;99.90;;;;;;5088520;28;21187;-67
2024/01/28 10:58:05;;;;;;;8.27;2.15;;;5.80;99.90;;;;;;5077157;28;20044;-67
2024/01/28 11:00:31;;;;;;;5.55;2.22;;;5.90;99.90;;;;;;5077802;28;20402;-67
2024/01/28 11:02:58;;;;;;;4.15;1.75;;;6.10;99.90;;;;;;5110596;27;20071;-67
2024/01/28 11:05:26;;;;;;;8.68;1.95;;;6.20;99.90;;;;;;5109898;27;20052;-67
2024/01/28 11:07:54;;;;;;;5.72;2.03;;;6.30;99.90;;;;;;5110559;27;20037;-67
2024/01/28 11:10:21;;;;;;;4.38;1.55;;;6.40;99.90;;;;;;5109932;27;20139;-66
2024/01/28 11:12:49;;;;;;;8.65;2.33;;;6.50;99.90;;;;;;5077076;28;20041;-67
2024/01/28 11:15:14;;;;;;;5.15;1.88;;;6.70;99.90;;;;;;5076495;28;20048;-67
2024/01/28 11:17:40;;;;;;;5.22;1.75;;;6.90;99.90;;;;;;5077807;28;20047;-67
2024/01/28 11:20:07;;;;;;;6.47;2.30;;;7.00;99.90;;;;;;5077520;28;20036;-67
2024/01/28 11:22:55;;;;;;;4.60;1.88;;;7.20;99.90;;;;;;5077672;28;20044;-67
2024/01/28 11:25:25;;;;;;;6.60;2.30;;;7.40;99.90;;;;;;5110282;27;20143;-67
2024/01/28 11:27:52;;;;;;;3.83;2.00;;;7.50;99.90;;;;;;5077595;28;20139;-67
2024/01/28 11:30:22;;;;;;;7.25;2.22;;;7.60;99.90;;;;;;5085264;28;20037;-67
2024/01/28 11:32:48;;;;;;;5.00;1.95;;;7.80;99.90;;;;;;5075191;28;20042;-67
2024/01/28 11:35:14;;;;;;;6.03;1.83;;;7.90;99.90;;;;;;5105282;27;20052;-67
2024/01/28 11:38:01;;;;;;;5.80;1.75;;;8.00;99.90;;;;;;5075223;28;20725;-67
2024/01/28 11:40:30;;;;;;;6.38;2.55;;;8.20;99.90;;;;;;5077727;28;20524;-67
2024/01/28 11:42:55;;;;;;;5.45;1.80;;;8.40;99.90;;;;;;5074953;28;20591;-67
2024/01/28 11:45:22;;;;;;;5.30;1.70;;;8.60;99.90;;;;;;5078197;28;20035;-67
2024/01/28 11:47:48;;;;;;;3.65;1.60;;;8.70;99.90;;;;;;5076158;28;20383;-67
2024/01/28 11:50:15;;;;;;;4.68;1.75;;;8.80;99.90;;;;;;5063838;28;20054;-67
2024/01/28 11:52:42;;;;;;;4.40;1.50;;;8.80;99.90;;;;;;5074922;28;20062;-67
2024/01/28 11:55:17;;;;;;;3.65;1.38;;;8.90;99.90;;;;;;5075471;28;20055;-67
2024/01/28 11:57:44;;;;;;;8.35;1.65;;;8.90;99.90;;;;;;5077204;28;20510;-67
2024/01/28 12:00:11;;;;;;;3.35;1.75;;;9.00;99.90;;;;;;5087693;28;20093;-67
2024/01/28 12:02:38;;;;;;;5.20;1.30;;;9.10;99.90;;;;;;5071021;28;20045;-67
2024/01/28 12:05:04;;;;;;;3.13;1.25;;;9.20;99.90;;;;;;5076208;28;20043;-67
2024/01/28 12:07:31;;;;;;;4.07;1.38;;;9.30;99.90;;;;;;5077228;28;20498;-67
2024/01/28 12:09:59;;;;;;;3.53;1.42;;;9.30;99.90;;;;;;5079289;28;20044;-67
2024/01/28 12:12:24;;;;;;;4.63;1.83;;;9.20;99.90;;;;;;5077082;28;20489;-67
2024/01/28 12:14:50;;;;;;;4.97;1.83;;;9.10;99.90;;;;;;5079088;28;20055;-67
2024/01/28 12:17:16;;;;;;;5.80;1.17;;;9.00;99.90;;;;;;5076884;28;20052;-67
2024/01/28 12:19:41;;;;;;;4.75;1.45;;;9.10;99.90;;;;;;5081510;28;20382;-67
2024/01/28 12:22:13;;;;;;;2.90;1.08;;;9.10;99.90;;;;;;5080721;28;20474;-67
2024/01/28 12:24:48;;;;;;;1.98;1.00;;;9.30;99.90;;;;;;5076299;28;20364;-67
2024/01/28 12:27:14;;;;;;;2.30;1.13;;;9.20;99.90;;;;;;5081363;28;20374;-67
2024/01/28 12:29:41;;;;;;;3.40;1.40;;;9.20;99.90;;;;;;5078443;28;20044;-67
2024/01/28 12:32:07;;;;;;;2.92;1.60;;;9.30;99.90;;;;;;5080249;28;20052;-67
2024/01/28 12:34:35;;;;;;;3.15;1.27;;;9.40;99.90;;;;;;5078724;28;20076;-67
2024/01/28 12:37:01;;;;;;;4.07;1.20;;;9.20;99.90;;;;;;5079573;28;20051;-67
2024/01/28 12:39:26;;;;;;;3.28;1.45;;;9.20;99.90;;;;;;5076590;28;20044;-67
2024/01/28 12:41:52;;;;;;;4.15;1.80;;;9.10;99.90;;;;;;5113258;27;20040;-67
2024/01/28 12:44:17;;;;;;;3.65;1.70;;;9.10;99.90;;;;;;5112845;27;20319;-67
2024/01/28 12:46:43;;;;;;;3.88;1.63;;;9.10;99.90;;;;;;5077780;28;20097;-67